createdAt,value
2018-08-03T00:00:55.081Z,14.50
2018-08-03T00:01:59.608Z,15.25
2018-08-03T00:03:02.524Z,13.75
2018-08-03T00:04:06.000Z,14.75
2018-08-03T00:05:09.133Z,15.75
2018-08-03T00:06:11.988Z,13.25
2018-08-03T00:07:15.457Z,15.00
2018-08-03T00:08:18.306Z,16.75
2018-08-03T00:09:21.930Z,15.75
2018-08-03T00:10:24.827Z,13.50
2018-08-03T00:11:28.984Z,13.00
2018-08-03T00:12:31.860Z,14.75
2018-08-03T00:13:35.343Z,13.00
2018-08-03T00:14:38.222Z,16.00
2018-08-03T00:15:41.707Z,13.00
2018-08-03T00:16:44.595Z,15.00
2018-08-03T00:17:47.728Z,14.25
2018-08-03T00:18:50.593Z,12.50
2018-08-03T00:19:53.446Z,13.00
2018-08-03T00:20:56.258Z,15.00
2018-08-03T00:21:59.107Z,16.00
2018-08-03T00:23:02.245Z,14.25
2018-08-03T00:24:05.708Z,12.75
2018-08-03T00:25:10.144Z,15.00
2018-08-03T00:26:14.467Z,13.75
2018-08-03T00:27:17.656Z,14.75
2018-08-03T00:28:25.393Z,12.75
2018-08-03T00:29:28.299Z,15.25
2018-08-03T00:30:31.467Z,15.50
2018-08-03T00:31:34.778Z,14.50
2018-08-03T00:32:37.607Z,14.75
2018-08-03T00:33:41.421Z,13.75
2018-08-03T00:34:44.258Z,14.25
2018-08-03T00:35:47.098Z,13.75
2018-08-03T00:36:50.221Z,15.00
2018-08-03T00:37:53.141Z,14.75
2018-08-03T00:38:55.984Z,15.00
2018-08-03T00:39:58.879Z,15.00
2018-08-03T00:41:01.745Z,13.00
2018-08-03T00:42:05.504Z,14.25
2018-08-03T00:43:11.033Z,13.75
2018-08-03T00:44:13.883Z,15.00
2018-08-03T00:45:16.761Z,14.75
2018-08-03T00:46:20.754Z,15.50
2018-08-03T00:47:23.766Z,15.00
2018-08-03T00:48:26.881Z,14.25
2018-08-03T00:49:31.875Z,15.25
2018-08-03T00:50:34.729Z,15.25
2018-08-03T00:51:37.935Z,14.75
2018-08-03T00:52:41.528Z,12.75
2018-08-03T00:53:44.535Z,14.75
2018-08-03T00:54:47.611Z,14.50
2018-08-03T00:55:50.947Z,16.25
2018-08-03T00:56:53.859Z,13.75
2018-08-03T00:57:56.740Z,15.00
2018-08-03T00:58:59.904Z,13.75
2018-08-03T01:00:02.827Z,13.75
2018-08-03T01:01:05.837Z,16.00
2018-08-03T01:02:09.017Z,15.00
2018-08-03T01:03:11.919Z,17.00
2018-08-03T01:04:15.229Z,14.50
2018-08-03T01:05:18.077Z,13.75
2018-08-03T01:06:20.932Z,14.75
2018-08-03T01:07:24.020Z,14.50
2018-08-03T01:08:27.245Z,15.00
2018-08-03T01:09:30.094Z,15.00
2018-08-03T01:10:32.978Z,16.00
2018-08-03T01:11:35.824Z,12.50
2018-08-03T01:12:38.688Z,16.00
2018-08-03T01:13:41.560Z,13.75
2018-08-03T01:14:44.688Z,14.00
2018-08-03T01:15:47.583Z,15.00
2018-08-03T01:16:50.460Z,16.75
2018-08-03T01:17:53.273Z,14.75
2018-08-03T01:18:56.204Z,15.25
2018-08-03T01:19:59.071Z,14.50
2018-08-03T01:21:02.290Z,15.50
2018-08-03T01:22:05.118Z,14.50
2018-08-03T01:23:07.964Z,14.75
2018-08-03T01:24:11.946Z,13.75
2018-08-03T01:25:14.836Z,16.00
2018-08-03T01:26:17.768Z,12.50
2018-08-03T01:27:20.890Z,13.75
2018-08-03T01:28:23.715Z,15.00
2018-08-03T01:29:26.562Z,15.00
2018-08-03T01:30:29.381Z,14.75
2018-08-03T01:31:32.196Z,15.25
2018-08-03T01:32:35.084Z,13.00
2018-08-03T01:33:38.265Z,15.00
2018-08-03T01:34:41.089Z,15.00
2018-08-03T01:35:43.960Z,15.00
2018-08-03T01:36:46.797Z,15.75
2018-08-03T01:37:49.689Z,16.50
2018-08-03T01:38:53.513Z,14.50
2018-08-03T01:39:56.648Z,15.00
2018-08-03T01:40:59.685Z,15.25
2018-08-03T01:42:02.737Z,14.75
2018-08-03T01:43:05.660Z,15.75
2018-08-03T01:44:08.519Z,15.25
2018-08-03T01:45:11.400Z,14.00
2018-08-03T01:46:14.530Z,16.00
2018-08-03T01:47:17.431Z,16.50
2018-08-03T01:48:20.861Z,17.00
2018-08-03T01:49:23.810Z,14.75
2018-08-03T01:50:26.727Z,17.50
2018-08-03T01:51:29.573Z,15.00
2018-08-03T01:52:32.961Z,14.50
2018-08-03T01:53:35.823Z,14.00
2018-08-03T01:54:38.749Z,13.50
2018-08-03T01:55:41.755Z,15.25
2018-08-03T01:56:45.079Z,16.00
2018-08-03T01:57:48.255Z,15.75
2018-08-03T01:58:51.407Z,15.25
2018-08-03T01:59:54.325Z,15.75
2018-08-03T02:00:58.872Z,15.00
2018-08-03T02:02:01.733Z,16.00
2018-08-03T02:03:04.669Z,15.50
2018-08-03T02:04:07.545Z,15.00
2018-08-03T02:05:10.902Z,15.00
2018-08-03T02:06:13.808Z,16.00
2018-08-03T02:07:16.678Z,15.25
2018-08-03T02:08:20.177Z,16.50
2018-08-03T02:09:24.576Z,15.75
2018-08-03T02:10:27.652Z,14.25
2018-08-03T02:11:31.545Z,17.75
2018-08-03T02:12:35.778Z,16.25
2018-08-03T02:13:38.671Z,14.50
2018-08-03T02:14:42.245Z,16.00
2018-08-03T02:15:45.110Z,15.00
2018-08-03T02:16:47.982Z,15.75
2018-08-03T02:17:51.341Z,16.00
2018-08-03T02:18:54.298Z,16.75
2018-08-03T02:19:57.222Z,15.75
2018-08-03T02:21:00.175Z,14.00
2018-08-03T02:22:03.043Z,16.25
2018-08-03T02:23:05.990Z,14.75
2018-08-03T02:24:09.351Z,16.00
2018-08-03T02:25:12.244Z,16.00
2018-08-03T02:26:15.104Z,18.50
2018-08-03T02:27:18.050Z,15.75
2018-08-03T02:28:21.076Z,15.25
2018-08-03T02:29:24.520Z,14.75
2018-08-03T02:30:27.439Z,16.75
2018-08-03T02:31:30.477Z,18.50
2018-08-03T02:32:33.458Z,16.00
2018-08-03T02:33:36.463Z,15.75
2018-08-03T02:34:39.444Z,14.75
2018-08-03T02:35:42.311Z,15.00
2018-08-03T02:36:45.458Z,14.50
2018-08-03T02:37:48.359Z,15.75
2018-08-03T02:38:52.112Z,17.00
2018-08-03T02:39:54.955Z,19.00
2018-08-03T02:40:57.837Z,15.25
2018-08-03T02:42:00.699Z,15.00
2018-08-03T02:43:03.569Z,14.75
2018-08-03T02:44:06.660Z,16.00
2018-08-03T02:45:09.253Z,16.00
2018-08-03T02:46:12.097Z,16.00
2018-08-03T02:47:14.968Z,15.00
2018-08-03T02:48:18.138Z,16.75
2018-08-03T02:49:21.070Z,14.25
2018-08-03T02:50:24.756Z,16.25
2018-08-03T02:51:27.613Z,16.00
2018-08-03T02:52:30.488Z,17.75
2018-08-03T02:53:33.377Z,17.00
2018-08-03T02:54:36.571Z,19.00
2018-08-03T02:55:39.437Z,16.50
2018-08-03T02:56:42.307Z,15.50
2018-08-03T02:57:45.321Z,15.50
2018-08-03T02:58:48.207Z,15.00
2018-08-03T02:59:51.049Z,16.00
2018-08-03T03:00:54.231Z,16.00
2018-08-03T03:01:57.097Z,17.25
2018-08-03T03:02:59.941Z,16.75
2018-08-03T03:04:02.799Z,14.00
2018-08-03T03:05:05.678Z,16.25
2018-08-03T03:06:08.570Z,17.50
2018-08-03T03:07:11.925Z,18.25
2018-08-03T03:08:15.620Z,17.00
2018-08-03T03:09:18.699Z,16.75
2018-08-03T03:10:21.541Z,16.25
2018-08-03T03:11:24.438Z,15.50
2018-08-03T03:12:27.280Z,17.75
2018-08-03T03:13:30.153Z,15.25
2018-08-03T03:14:33.249Z,15.75
2018-08-03T03:15:36.113Z,16.75
2018-08-03T03:16:38.988Z,16.25
2018-08-03T03:17:41.844Z,16.00
2018-08-03T03:18:44.755Z,16.75
2018-08-03T03:19:48.007Z,15.50
2018-08-03T03:20:50.909Z,15.50
2018-08-03T03:21:53.810Z,16.00
2018-08-03T03:22:56.656Z,15.00
2018-08-03T03:23:59.497Z,19.00
2018-08-03T03:25:02.478Z,18.25
2018-08-03T03:26:05.629Z,17.75
2018-08-03T03:27:08.451Z,18.25
2018-08-03T03:28:11.296Z,15.25
2018-08-03T03:29:14.151Z,17.50
2018-08-03T03:30:17.099Z,16.00
2018-08-03T03:31:19.956Z,16.50
2018-08-03T03:32:22.899Z,19.25
2018-08-03T03:33:25.881Z,16.75
2018-08-03T03:34:29.565Z,16.50
2018-08-03T03:50:18.674Z,18.00
2018-08-03T03:51:22.461Z,18.00
2018-08-03T03:52:26.291Z,18.75
2018-08-03T03:53:30.085Z,18.25
2018-08-03T03:54:33.908Z,17.00
2018-08-03T03:55:38.148Z,16.00
2018-08-03T03:56:42.077Z,17.00
2018-08-03T03:57:45.884Z,17.25
2018-08-03T03:58:49.694Z,18.00
2018-08-03T03:59:53.544Z,18.00
2018-08-03T04:00:57.333Z,18.00
2018-08-03T04:02:01.645Z,18.50
2018-08-03T04:03:04.541Z,16.50
2018-08-03T04:04:07.403Z,16.50
2018-08-03T04:05:10.367Z,18.00
2018-08-03T04:06:13.225Z,17.50
2018-08-03T04:07:16.073Z,15.75
2018-08-03T04:08:18.932Z,17.00
2018-08-03T04:09:21.874Z,17.75
2018-08-03T04:10:24.739Z,16.50
2018-08-03T04:11:28.158Z,16.50
2018-08-03T04:12:32.262Z,15.25
2018-08-03T04:13:36.377Z,17.00
2018-08-03T04:14:39.285Z,16.25
2018-08-03T04:15:42.664Z,16.75
2018-08-03T04:16:46.499Z,16.25
2018-08-03T04:17:49.333Z,18.75
2018-08-03T04:18:52.845Z,19.00
2018-08-03T04:19:56.561Z,16.50
2018-08-03T04:20:59.431Z,18.50
2018-08-03T04:22:02.903Z,17.50
2018-08-03T04:23:06.051Z,18.50
2018-08-03T04:24:09.898Z,18.00
2018-08-03T04:25:12.985Z,18.25
2018-08-03T04:26:15.897Z,17.75
2018-08-03T04:27:19.454Z,20.25
2018-08-03T04:28:22.353Z,18.25
2018-08-03T04:29:25.204Z,18.50
2018-08-03T04:30:28.050Z,16.50
2018-08-03T04:31:31.250Z,17.50
2018-08-03T04:32:34.141Z,18.00
2018-08-03T04:33:37.073Z,16.50
2018-08-03T04:34:40.052Z,14.50
2018-08-03T04:35:42.924Z,21.25
2018-08-03T04:36:45.787Z,22.50
2018-08-03T04:37:49.044Z,21.75
2018-08-03T04:38:52.617Z,24.00
2018-08-03T04:39:56.094Z,20.75
2018-08-03T04:40:58.991Z,18.00
2018-08-03T04:42:01.907Z,23.00
2018-08-03T04:43:04.899Z,18.25
2018-08-03T04:44:10.608Z,20.00
2018-08-03T04:45:13.676Z,20.75
2018-08-03T04:46:16.626Z,18.50
2018-08-03T04:47:19.503Z,16.00
2018-08-03T04:48:22.430Z,17.50
2018-08-03T04:49:26.363Z,19.00
2018-08-03T04:50:29.540Z,20.00
2018-08-03T04:51:32.454Z,19.00
2018-08-03T04:52:35.323Z,16.25
2018-08-03T04:53:38.221Z,16.50
2018-08-03T04:54:41.140Z,18.00
2018-08-03T04:55:44.356Z,18.75
2018-08-03T04:56:47.558Z,17.75
2018-08-03T04:57:51.136Z,18.25
2018-08-03T04:58:54.855Z,16.75
2018-08-03T04:59:57.752Z,17.00
2018-08-03T05:01:01.288Z,19.75
2018-08-03T05:02:04.261Z,18.00
2018-08-03T05:03:07.782Z,18.00
2018-08-03T05:04:11.190Z,15.75
2018-08-03T05:05:14.739Z,18.50
2018-08-03T05:06:17.803Z,18.75
2018-08-03T05:07:20.678Z,14.50
2018-08-03T05:08:23.772Z,17.75
2018-08-03T05:09:27.763Z,18.25
2018-08-03T05:10:30.630Z,19.25
2018-08-03T05:11:34.517Z,16.25
2018-08-03T05:12:37.732Z,17.50
2018-08-03T05:13:40.619Z,18.00
2018-08-03T05:14:43.533Z,18.00
2018-08-03T05:15:46.715Z,17.50
2018-08-03T05:16:50.113Z,17.00
2018-08-03T05:17:52.996Z,18.25
2018-08-03T05:18:55.913Z,16.75
2018-08-03T05:19:58.763Z,18.75
2018-08-03T05:21:01.635Z,17.75
2018-08-03T05:22:04.812Z,15.75
2018-08-03T05:23:08.360Z,18.00
2018-08-03T05:24:11.280Z,17.50
2018-08-03T05:25:14.208Z,17.75
2018-08-03T05:26:17.135Z,18.50
2018-08-03T05:27:21.703Z,18.00
2018-08-03T05:28:25.587Z,18.25
2018-08-03T05:29:28.460Z,18.25
2018-08-03T05:30:31.369Z,20.00
2018-08-03T05:31:34.251Z,20.75
2018-08-03T05:32:37.081Z,17.50
2018-08-03T05:33:40.391Z,18.00
2018-08-03T05:34:44.225Z,16.00
2018-08-03T05:35:47.203Z,17.50
2018-08-03T05:36:50.373Z,17.25
2018-08-03T05:37:53.889Z,19.75
2018-08-03T05:38:56.808Z,19.00
2018-08-03T05:40:00.000Z,19.00
2018-08-03T05:41:04.124Z,19.00
2018-08-03T05:42:07.012Z,19.00
2018-08-03T05:43:09.853Z,18.00
2018-08-03T05:44:12.714Z,18.00
2018-08-03T05:45:16.731Z,17.75
2018-08-03T05:46:21.667Z,17.50
2018-08-03T05:47:24.508Z,18.75
2018-08-03T05:48:28.570Z,18.75
2018-08-03T05:49:31.435Z,16.50
2018-08-03T05:50:34.299Z,18.75
2018-08-03T05:51:37.807Z,19.00
2018-08-03T05:52:41.082Z,15.75
2018-08-03T05:53:43.946Z,15.75
2018-08-03T05:54:46.968Z,18.00
2018-08-03T05:55:49.887Z,15.75
2018-08-03T05:56:52.751Z,16.75
2018-08-03T05:57:55.687Z,18.00
2018-08-03T05:58:58.921Z,20.50
2018-08-03T06:00:01.800Z,19.75
2018-08-03T06:01:04.789Z,18.75
2018-08-03T06:02:08.165Z,18.50
2018-08-03T06:03:11.023Z,18.00
2018-08-03T06:04:15.621Z,18.75
2018-08-03T06:05:19.871Z,17.75
2018-08-03T06:06:22.749Z,18.50
2018-08-03T06:07:25.636Z,18.75
2018-08-03T06:08:28.800Z,19.00
2018-08-03T06:09:31.673Z,17.25
2018-08-03T06:10:34.583Z,16.75
2018-08-03T06:11:37.697Z,17.50
2018-08-03T06:12:40.650Z,17.00
2018-08-03T06:13:44.700Z,19.00
2018-08-03T06:14:48.010Z,18.00
2018-08-03T06:15:51.629Z,16.50
2018-08-03T06:16:54.552Z,16.50
2018-08-03T06:17:58.770Z,18.25
2018-08-03T06:19:01.949Z,16.75
2018-08-03T06:20:04.934Z,16.00
2018-08-03T06:21:07.824Z,19.25
2018-08-03T06:22:10.715Z,18.75
2018-08-03T06:23:13.821Z,16.25
2018-08-03T06:24:18.438Z,18.50
2018-08-03T06:25:21.277Z,18.50
2018-08-03T06:26:24.635Z,15.25
2018-08-03T06:27:27.523Z,17.25
2018-08-03T06:28:30.471Z,18.75
2018-08-03T06:29:33.536Z,16.50
2018-08-03T06:30:36.840Z,17.25
2018-08-03T06:31:39.759Z,18.75
2018-08-03T06:32:42.827Z,18.50
2018-08-03T06:33:45.751Z,17.50
2018-08-03T06:34:48.685Z,17.00
2018-08-03T06:35:51.685Z,16.00
2018-08-03T06:36:55.188Z,18.25
2018-08-03T06:37:58.075Z,17.00
2018-08-03T06:39:00.925Z,16.00
2018-08-03T06:40:04.459Z,17.00
2018-08-03T06:41:07.709Z,16.75
2018-08-03T06:42:10.575Z,18.25
2018-08-03T06:43:13.816Z,17.50
2018-08-03T06:44:16.686Z,15.50
2018-08-03T06:45:19.636Z,16.00
2018-08-03T06:46:22.527Z,17.50
2018-08-03T06:47:25.398Z,15.50
2018-08-03T06:48:28.387Z,16.75
2018-08-03T06:49:31.794Z,17.00
2018-08-03T06:50:36.242Z,17.00
2018-08-03T06:51:39.147Z,16.00
2018-08-03T06:52:42.778Z,16.00
2018-08-03T06:53:47.031Z,17.25
2018-08-03T06:54:49.947Z,15.50
2018-08-03T06:55:53.125Z,16.50
2018-08-03T06:56:56.013Z,16.50
2018-08-03T06:57:59.943Z,14.50
2018-08-03T06:59:02.899Z,16.25
2018-08-03T07:00:05.818Z,17.00
2018-08-03T07:01:08.740Z,16.50
2018-08-03T07:02:12.125Z,17.00
2018-08-03T07:03:15.073Z,16.00
2018-08-03T07:04:19.231Z,16.50
2018-08-03T07:05:22.158Z,16.50
2018-08-03T07:06:26.315Z,15.50
2018-08-03T07:07:29.283Z,16.50
2018-08-03T07:08:32.441Z,18.00
2018-08-03T07:09:35.332Z,15.50
2018-08-03T07:10:38.308Z,20.25
2018-08-03T07:11:41.242Z,16.25
2018-08-03T07:12:44.113Z,14.50
2018-08-03T07:13:48.512Z,15.00
2018-08-03T07:14:51.770Z,17.00
2018-08-03T07:15:56.572Z,16.25
2018-08-03T07:16:59.485Z,15.50
2018-08-03T07:18:03.373Z,16.00
2018-08-03T07:19:06.225Z,16.00
2018-08-03T07:20:09.327Z,15.75
2018-08-03T07:21:14.230Z,16.50
2018-08-03T07:22:17.659Z,16.00
2018-08-03T07:23:20.888Z,15.00
2018-08-03T07:24:23.792Z,17.00
2018-08-03T07:25:26.733Z,15.75
2018-08-03T07:26:29.657Z,16.00
2018-08-03T07:27:33.798Z,17.00
2018-08-03T07:28:36.672Z,17.00
2018-08-03T07:29:41.552Z,16.25
2018-08-03T07:30:44.421Z,15.25
2018-08-03T07:31:47.391Z,17.75
2018-08-03T07:32:50.260Z,16.25
2018-08-03T07:33:53.436Z,17.25
2018-08-03T07:34:56.345Z,15.75
2018-08-03T07:36:00.467Z,16.25
2018-08-03T07:37:03.466Z,14.00
2018-08-03T07:38:06.290Z,16.25
2018-08-03T07:39:09.489Z,15.75
2018-08-03T07:40:13.545Z,16.00
2018-08-03T07:41:16.424Z,15.25
2018-08-03T07:42:19.331Z,14.75
2018-08-03T07:43:22.377Z,15.25
2018-08-03T07:44:26.584Z,15.00
2018-08-03T07:45:29.454Z,14.00
2018-08-03T07:46:32.339Z,15.25
2018-08-03T07:47:35.212Z,15.25
2018-08-03T07:48:40.621Z,13.75
2018-08-03T07:49:43.560Z,14.50
2018-08-03T07:50:46.460Z,15.75
2018-08-03T07:51:49.487Z,15.00
2018-08-03T07:52:52.730Z,15.00
2018-08-03T07:53:57.355Z,14.00
2018-08-03T07:55:00.263Z,15.25
2018-08-03T07:56:03.602Z,13.50
2018-08-03T07:57:06.534Z,13.25
2018-08-03T07:58:10.027Z,14.75
2018-08-03T07:59:13.841Z,13.75
2018-08-03T08:00:16.745Z,14.50
2018-08-03T08:01:19.761Z,16.75
2018-08-03T08:02:23.330Z,17.00
2018-08-03T08:03:26.316Z,17.25
2018-08-03T08:04:30.731Z,17.50
2018-08-03T08:05:34.034Z,16.50
2018-08-03T08:07:56.756Z,15.75
2018-08-03T08:09:00.340Z,16.75
2018-08-03T08:10:03.629Z,17.50
2018-08-03T08:11:07.376Z,15.50
2018-08-03T08:12:10.830Z,16.50
2018-08-03T08:13:15.970Z,16.25
2018-08-03T08:14:19.691Z,16.50
2018-08-03T08:15:22.624Z,17.25
2018-08-03T08:16:26.375Z,17.00
2018-08-03T08:17:30.587Z,19.25
2018-08-03T08:18:34.955Z,17.50
2018-08-03T08:19:39.272Z,18.25
2018-08-03T08:20:42.271Z,16.00
2018-08-03T08:21:45.161Z,17.75
2018-08-03T08:22:48.267Z,14.75
2018-08-03T08:23:51.272Z,15.00
2018-08-03T08:24:56.777Z,14.25
2018-08-03T08:25:59.733Z,14.50
2018-08-03T08:27:03.244Z,14.75
2018-08-03T08:28:06.321Z,15.75
2018-08-03T08:29:09.257Z,14.25
2018-08-03T08:30:13.250Z,14.75
2018-08-03T08:31:19.674Z,13.00
2018-08-03T08:32:22.850Z,12.00
2018-08-03T08:33:27.750Z,14.75
2018-08-03T08:35:44.414Z,13.75
2018-08-03T08:36:47.519Z,13.50
2018-08-03T08:37:51.464Z,13.75
2018-08-03T08:38:54.391Z,15.00
2018-08-03T08:39:57.366Z,14.00
2018-08-03T08:41:00.297Z,13.00
2018-08-03T08:42:03.209Z,12.50
2018-08-03T08:43:06.820Z,11.50
2018-08-03T08:44:11.256Z,12.75
2018-08-03T08:45:15.017Z,12.75
2018-08-03T08:46:18.539Z,11.00
2018-08-03T08:47:22.004Z,12.50
2018-08-03T08:48:26.130Z,12.00
2018-08-03T08:49:34.379Z,11.75
2018-08-03T08:50:38.003Z,11.25
2018-08-03T08:51:41.583Z,12.50
2018-08-03T08:52:45.388Z,11.00
2018-08-03T08:53:49.906Z,16.75
2018-08-03T08:54:53.099Z,12.25
2018-08-03T08:55:57.103Z,11.50
2018-08-03T08:57:00.025Z,12.75
2018-08-03T08:58:03.516Z,12.00
2018-08-03T08:59:07.273Z,10.50
2018-08-03T09:00:10.212Z,11.25
2018-08-03T09:01:14.583Z,11.50
2018-08-03T09:02:18.656Z,11.00
2018-08-03T09:03:25.449Z,12.50
2018-08-03T09:04:28.384Z,12.00
2018-08-03T09:05:32.466Z,11.75
2018-08-03T09:06:35.406Z,10.25
2018-08-03T09:07:40.195Z,11.50
2018-08-03T09:08:43.597Z,11.00
2018-08-03T09:09:49.340Z,11.25
2018-08-03T09:10:52.310Z,11.75
2018-08-03T09:11:57.169Z,12.00
2018-08-03T09:13:00.097Z,10.50
2018-08-03T09:14:04.696Z,10.75
2018-08-03T09:15:08.192Z,12.00
2018-08-03T09:16:12.401Z,11.50
2018-08-03T09:17:16.310Z,11.00
2018-08-03T09:18:19.877Z,10.50
2018-08-03T09:19:23.360Z,10.00
2018-08-03T09:20:26.307Z,12.25
2018-08-03T09:21:31.277Z,13.00
2018-08-03T09:22:34.224Z,9.75
2018-08-03T09:23:37.589Z,11.00
2018-08-03T09:24:43.586Z,11.50
2018-08-03T09:25:46.513Z,11.50
2018-08-03T09:26:51.720Z,12.75
2018-08-03T09:27:56.482Z,11.00
2018-08-03T09:30:12.380Z,10.50
2018-08-03T09:31:16.924Z,10.00
2018-08-03T09:32:21.055Z,11.75
2018-08-03T09:33:24.641Z,12.00
2018-08-03T09:34:34.247Z,11.00
2018-08-03T09:35:37.135Z,11.00
2018-08-03T09:36:40.065Z,11.75
2018-08-03T09:37:45.967Z,11.00
2018-08-03T09:38:50.010Z,10.25
2018-08-03T09:39:54.345Z,10.50
2018-08-03T09:40:58.135Z,12.00
2018-08-03T09:42:01.943Z,11.25
2018-08-03T09:43:05.062Z,11.25
2018-08-03T09:44:10.352Z,11.00
2018-08-03T09:45:14.644Z,12.50
2018-08-03T09:46:17.610Z,13.50
2018-08-03T09:47:20.764Z,11.50
2018-08-03T09:48:24.520Z,11.00
2018-08-03T10:05:47.242Z,10.75
2018-08-03T10:06:50.251Z,11.00
2018-08-03T10:07:53.173Z,12.00
2018-08-03T10:08:56.712Z,9.75
2018-08-03T10:10:01.847Z,11.75
2018-08-03T10:11:05.190Z,10.25
2018-08-03T10:12:13.313Z,10.50
2018-08-03T10:13:18.716Z,11.25
2018-08-03T10:14:22.365Z,10.25
2018-08-03T10:15:25.883Z,11.00
2018-08-03T10:17:38.344Z,10.00
2018-08-03T10:18:41.232Z,11.50
2018-08-03T10:19:46.099Z,10.75
2018-08-03T10:20:49.074Z,11.25
2018-08-03T10:21:53.573Z,11.00
2018-08-03T10:22:56.805Z,11.00
2018-08-03T10:24:00.388Z,12.75
2018-08-03T10:25:03.248Z,10.25
2018-08-03T10:26:07.291Z,10.75
2018-08-03T10:27:10.261Z,10.50
2018-08-03T10:28:14.599Z,10.50
2018-08-03T10:29:17.873Z,11.00
2018-08-03T10:30:21.835Z,11.50
2018-08-03T10:31:24.725Z,11.75
2018-08-03T10:32:28.484Z,10.75
2018-08-03T10:33:31.424Z,11.50
2018-08-03T10:34:34.449Z,11.00
2018-08-03T10:35:37.670Z,11.25
2018-08-03T10:36:41.147Z,10.00
2018-08-03T10:37:44.563Z,12.25
2018-08-03T10:38:48.427Z,11.75
2018-08-03T10:39:52.533Z,12.00
2018-08-03T10:40:58.394Z,12.00
2018-08-03T10:42:02.458Z,11.75
2018-08-03T10:43:05.536Z,11.50
2018-08-03T10:44:09.080Z,11.00
2018-08-03T10:45:13.895Z,12.25
2018-08-03T10:46:17.545Z,12.00
2018-08-03T10:47:21.571Z,11.50
2018-08-03T10:48:24.508Z,10.50
2018-08-03T10:49:29.634Z,11.25
2018-08-03T10:50:33.757Z,11.00
2018-08-03T10:51:38.369Z,10.00
2018-08-03T10:52:43.388Z,11.00
2018-08-03T10:53:46.577Z,10.50
2018-08-03T10:54:50.314Z,10.50
2018-08-03T10:55:53.239Z,10.50
2018-08-03T10:56:56.093Z,12.00
2018-08-03T10:57:59.026Z,10.75
2018-08-03T10:59:02.467Z,12.00
2018-08-03T11:00:05.703Z,10.25
2018-08-03T11:01:09.589Z,10.75
2018-08-03T11:02:13.410Z,11.00
2018-08-03T11:03:19.938Z,11.25
2018-08-03T11:04:22.998Z,11.50
2018-08-03T11:05:27.448Z,10.25
2018-08-03T11:06:31.265Z,11.25
2018-08-03T11:07:34.167Z,17.25
2018-08-03T11:08:37.299Z,15.25
2018-08-03T11:09:40.833Z,12.00
2018-08-03T11:10:44.739Z,11.75
2018-08-03T11:11:47.683Z,10.75
2018-08-03T11:12:52.393Z,10.75
2018-08-03T11:13:56.579Z,10.50
2018-08-03T11:14:59.519Z,11.75
2018-08-03T11:16:03.926Z,12.25
2018-08-03T11:17:07.859Z,12.00
2018-08-03T11:18:11.357Z,11.25
2018-08-03T11:19:15.223Z,11.00
2018-08-03T11:20:19.226Z,13.00
2018-08-03T11:21:25.268Z,10.50
2018-08-03T11:22:28.139Z,11.25
2018-08-03T11:23:32.468Z,13.00
2018-08-03T11:24:35.366Z,11.75
2018-08-03T11:25:38.607Z,10.25
2018-08-03T11:26:41.470Z,11.00
2018-08-03T11:27:44.349Z,10.00
2018-08-03T11:28:47.239Z,12.25
2018-08-03T11:29:51.430Z,11.00
2018-08-03T11:30:54.647Z,12.25
2018-08-03T11:31:58.893Z,11.00
2018-08-03T11:33:02.449Z,12.00
2018-08-03T11:34:07.227Z,10.00
2018-08-03T11:35:10.761Z,13.50
2018-08-03T11:36:15.230Z,14.75
2018-08-03T11:37:20.110Z,12.50
2018-08-03T11:38:24.384Z,13.00
2018-08-03T11:39:27.249Z,12.00
2018-08-03T11:40:30.131Z,13.25
2018-08-03T11:41:33.417Z,12.00
2018-08-03T11:42:38.283Z,13.00
2018-08-03T11:43:41.172Z,12.00
2018-08-03T11:44:48.682Z,13.00
2018-08-03T11:45:51.743Z,12.25
2018-08-03T11:46:55.186Z,10.75
2018-08-03T11:47:59.497Z,11.25
2018-08-03T11:49:03.219Z,12.25
2018-08-03T11:50:07.091Z,12.00
2018-08-03T11:51:11.204Z,11.75
2018-08-03T11:52:15.681Z,10.50
2018-08-03T11:53:23.178Z,13.25
2018-08-03T11:54:26.098Z,11.00
2018-08-03T11:55:34.295Z,13.25
2018-08-03T11:56:37.231Z,11.25
2018-08-03T11:57:40.656Z,13.00
2018-08-03T11:58:44.035Z,12.00
2018-08-03T11:59:48.246Z,11.00
2018-08-03T12:00:52.120Z,13.25
2018-08-03T12:01:55.039Z,12.00
2018-08-03T12:02:58.128Z,11.25
2018-08-03T12:04:01.375Z,13.25
2018-08-03T12:05:04.895Z,10.25
2018-08-03T12:06:08.432Z,11.00
2018-08-03T12:07:11.366Z,11.50
2018-08-03T12:08:15.243Z,12.00
2018-08-03T12:09:19.699Z,12.25
2018-08-03T12:10:24.202Z,13.00
2018-08-03T12:11:27.413Z,10.75
2018-08-03T12:12:31.160Z,12.75
2018-08-03T12:13:35.349Z,13.00
2018-08-03T12:14:38.432Z,11.25
2018-08-03T12:15:41.334Z,11.75
2018-08-03T12:16:44.669Z,11.00
2018-08-03T12:17:48.718Z,11.25
2018-08-03T12:18:52.593Z,11.25
2018-08-03T12:19:56.331Z,11.00
2018-08-03T12:20:59.235Z,11.75
2018-08-03T12:22:02.110Z,11.00
2018-08-03T12:23:05.355Z,12.00
2018-08-03T12:24:09.789Z,10.25
2018-08-03T12:25:12.723Z,13.50
2018-08-03T12:26:15.633Z,11.25
2018-08-03T12:27:18.489Z,10.75
2018-08-03T12:28:22.520Z,11.25
2018-08-03T12:29:26.780Z,10.00
2018-08-03T12:30:29.803Z,11.25
2018-08-03T12:31:32.875Z,12.50
2018-08-03T12:32:36.321Z,12.25
2018-08-03T12:33:40.077Z,11.25
2018-08-03T12:34:42.999Z,10.75
2018-08-03T12:35:46.292Z,10.50
2018-08-03T12:36:50.263Z,11.25
2018-08-03T12:39:05.371Z,12.50
2018-08-03T12:40:08.943Z,12.25
2018-08-03T12:41:12.434Z,15.25
2018-08-03T12:42:16.946Z,15.25
2018-08-03T12:43:19.846Z,12.50
2018-08-03T12:44:26.473Z,11.00
2018-08-03T12:45:33.995Z,11.75
2018-08-03T12:46:34.343Z,12.25
2018-08-03T12:47:40.463Z,12.00
2018-08-03T12:48:44.658Z,11.00
2018-08-03T12:49:49.232Z,11.75
2018-08-03T12:52:00.484Z,10.50
2018-08-03T12:53:05.816Z,11.00
2018-08-03T12:54:08.757Z,10.50
2018-08-03T12:55:12.764Z,11.00
2018-08-03T12:56:17.097Z,11.00
2018-08-03T12:57:20.038Z,12.00
2018-08-03T12:58:24.419Z,12.50
2018-08-03T12:59:28.522Z,12.50
2018-08-03T13:00:31.838Z,12.25
2018-08-03T13:01:36.438Z,13.25
2018-08-03T13:02:39.576Z,12.00
2018-08-03T13:03:42.466Z,11.00
2018-08-03T13:04:47.366Z,13.00
2018-08-03T13:05:51.464Z,12.00
2018-08-03T13:06:54.348Z,11.50
2018-08-03T13:07:57.639Z,12.00
2018-08-03T13:09:01.179Z,10.00
2018-08-03T13:10:04.097Z,11.75
2018-08-03T13:11:07.012Z,10.00
2018-08-03T13:12:10.617Z,10.75
2018-08-03T13:13:13.960Z,11.25
2018-08-03T13:14:16.950Z,10.00
2018-08-03T13:15:19.850Z,12.25
2018-08-03T13:16:22.761Z,10.00
2018-08-03T13:17:26.865Z,11.00
2018-08-03T13:18:29.769Z,12.00
2018-08-03T13:19:34.407Z,11.50
2018-08-03T13:20:38.256Z,11.00
2018-08-03T13:21:42.199Z,10.75
2018-08-03T13:22:45.107Z,12.00
2018-08-03T13:23:48.845Z,12.25
2018-08-03T13:24:53.709Z,10.50
2018-08-03T13:26:00.449Z,11.75
2018-08-03T13:27:03.635Z,11.50
2018-08-03T13:28:06.558Z,12.25
2018-08-03T13:29:09.698Z,11.00
2018-08-03T13:30:12.713Z,12.25
2018-08-03T13:31:15.618Z,10.50
2018-08-03T13:32:18.540Z,11.00
2018-08-03T13:33:23.449Z,11.00
2018-08-03T13:34:26.441Z,11.00
2018-08-03T13:35:29.379Z,11.00
2018-08-03T13:36:32.714Z,12.00
2018-08-03T13:37:36.595Z,9.75
2018-08-03T13:38:40.375Z,11.00
2018-08-03T13:39:44.174Z,11.25
2018-08-03T13:40:47.819Z,10.00
2018-08-03T13:41:52.001Z,10.75
2018-08-03T13:42:54.920Z,11.00
2018-08-03T13:43:57.803Z,11.50
2018-08-03T13:45:00.801Z,12.25
2018-08-03T13:46:05.548Z,11.25
2018-08-03T13:47:08.488Z,10.00
2018-08-03T13:48:11.546Z,11.75
2018-08-03T13:49:14.567Z,10.50
2018-08-03T13:50:17.521Z,11.75
2018-08-03T13:51:20.955Z,10.00
2018-08-03T13:52:24.822Z,11.00
2018-08-03T13:53:27.703Z,12.50
2018-08-03T13:54:31.498Z,10.75
2018-08-03T13:55:34.477Z,11.00
2018-08-03T13:56:37.352Z,10.75
2018-08-03T13:57:40.349Z,9.25
2018-08-03T13:58:46.615Z,9.75
2018-08-03T13:59:51.707Z,10.00
2018-08-03T14:00:54.580Z,10.50
2018-08-03T14:01:58.321Z,9.00
2018-08-03T14:03:03.057Z,10.25
2018-08-03T14:04:06.636Z,13.75
2018-08-03T14:05:09.848Z,11.25
2018-08-03T14:06:12.769Z,11.75
2018-08-03T14:07:15.642Z,10.25
2018-08-03T14:08:18.589Z,10.25
2018-08-03T14:09:22.413Z,10.25
2018-08-03T14:10:26.835Z,11.00
2018-08-03T14:11:32.636Z,9.75
2018-08-03T14:12:35.847Z,10.25
2018-08-03T14:13:39.339Z,11.00
2018-08-03T14:14:42.798Z,11.50
2018-08-03T14:15:46.081Z,12.00